Time;durP1;ratioP1;P1;durP2;ratioP2;P2;SDS_P1;SDS_P2;PMS_P1;PMS_P2;Temp;Humidity;BMP_temperature;BMP_pressure;BME280_temperature;BME280_humidity;BME280_pressure;Samples;Min_cycle;Max_cycle;Signal;HPM_P1;HPM_P2
2022/05/27 00:00:48;;;;;;;3.55;1.38;;;;;;;18.51;50.51;100606.84;5026690;28;20116;-77
2022/05/27 00:03:14;;;;;;;5.10;1.40;;;;;;;18.52;50.74;100601.44;5026210;28;20040;-75
2022/05/27 00:05:41;;;;;;;4.15;1.25;;;;;;;18.49;50.79;100601.53;5024266;28;20050;-75
2022/05/27 00:08:08;;;;;;;3.83;1.10;;;;;;;18.47;51.07;100591.84;5021318;28;20029;-75
2022/05/27 00:10:34;;;;;;;3.85;1.10;;;;;;;18.50;50.50;100589.06;5023542;28;20061;-75
2022/05/27 00:12:59;;;;;;;3.53;1.17;;;;;;;18.48;50.78;100581.09;5025336;28;20076;-75
2022/05/27 00:15:25;;;;;;;4.40;1.08;;;;;;;18.47;50.97;100575.78;5022969;28;20574;-75
2022/05/27 00:17:50;;;;;;;4.35;1.20;;;;;;;18.40;50.37;100572.50;5024012;28;20037;-75
2022/05/27 00:20:15;;;;;;;4.50;1.48;;;;;;;18.43;51.13;100571.50;5027114;28;20034;-75
2022/05/27 00:22:41;;;;;;;3.42;1.20;;;;;;;18.27;51.19;100571.22;5022839;28;20079;-76
2022/05/27 00:25:08;;;;;;;3.05;1.20;;;;;;;18.40;51.05;100568.03;5025139;28;20075;-75
2022/05/27 00:27:33;;;;;;;3.45;0.93;;;;;;;18.46;50.72;100566.91;5022020;28;20038;-75
2022/05/27 00:29:58;;;;;;;4.35;1.00;;;;;;;18.44;50.79;100570.56;5024827;28;20048;-75
2022/05/27 00:32:24;;;;;;;3.50;1.20;;;;;;;18.44;50.73;100566.09;5022702;28;20040;-75
2022/05/27 00:34:49;;;;;;;3.65;1.15;;;;;;;18.44;50.86;100562.56;5023446;28;20442;-76
2022/05/27 00:37:14;;;;;;;3.70;1.00;;;;;;;18.42;50.83;100565.31;5022399;28;20073;-76
2022/05/27 00:39:40;;;;;;;3.58;1.10;;;;;;;18.37;51.00;100559.25;5021340;28;20052;-75
2022/05/27 00:42:06;;;;;;;3.38;0.98;;;;;;;18.38;50.91;100561.84;5024891;28;20038;-76
2022/05/27 00:44:31;;;;;;;4.10;1.08;;;;;;;18.43;50.92;100568.84;5021922;28;20042;-75
2022/05/27 00:47:07;;;;;;;3.60;0.80;;;;;;;18.42;51.02;100554.63;5023370;28;20112;-76
2022/05/27 00:49:33;;;;;;;3.95;1.00;;;;;;;18.45;51.13;100553.63;5028221;28;20388;-76
2022/05/27 00:52:08;;;;;;;3.20;0.90;;;;;;;18.39;51.32;100554.72;5024837;28;20216;-76
2022/05/27 00:54:34;;;;;;;5.15;0.95;;;;;;;18.38;51.01;100561.84;5022997;28;20034;-76
2022/05/27 00:57:05;;;;;;;2.58;0.70;;;;;;;18.38;51.56;100559.19;5026202;28;20116;-76
2022/05/27 00:59:40;;;;;;;3.08;1.00;;;;;;;18.35;51.28;100553.97;5021924;28;20140;-76
2022/05/27 01:02:06;;;;;;;3.17;1.00;;;;;;;18.39;51.43;100555.59;5021604;28;20447;-76
2022/05/27 01:04:32;;;;;;;3.03;1.05;;;;;;;18.40;51.51;100552.00;5023574;28;20077;-76
2022/05/27 01:06:58;;;;;;;3.72;0.90;;;;;;;18.42;51.30;100559.06;5023263;28;20060;-76
2022/05/27 01:09:24;;;;;;;1.80;0.70;;;;;;;18.38;51.42;100547.63;5023027;28;20046;-76
2022/05/27 01:12:16;;;;;;;2.60;0.80;;;;;;;18.35;51.45;100537.94;5033513;28;20046;-76
2022/05/27 01:15:03;;;;;;;3.95;0.80;;;;;;;18.38;51.17;100521.78;5022029;28;20120;-76
2022/05/27 01:17:53;;;;;;;5.38;1.08;;;;;;;18.42;51.55;100522.56;5021694;28;20042;-76
2022/05/27 01:20:46;;;;;;;3.20;0.70;;;;;;;18.40;51.01;100516.38;5021730;28;20049;-75
2022/05/27 01:23:40;;;;;;;3.03;0.80;;;;;;;18.35;51.31;100521.91;5021989;28;20176;-76
2022/05/27 01:26:23;;;;;;;2.40;0.80;;;;;;;18.39;51.16;100512.84;5022691;28;20046;-76
2022/05/27 01:29:09;;;;;;;3.08;1.30;;;;;;;18.44;51.26;100520.66;5022000;28;20530;-76
2022/05/27 01:31:48;;;;;;;2.95;1.02;;;;;;;18.37;51.75;100524.53;5019990;28;20046;-76
2022/05/27 01:34:42;;;;;;;3.17;0.88;;;;;;;18.33;51.87;100523.75;5021350;28;20029;-76
2022/05/27 01:37:11;;;;;;;2.75;0.85;;;;;;;18.32;52.03;100527.38;5023341;28;20411;-75
2022/05/27 01:39:41;;;;;;;4.55;1.23;;;;;;;18.37;51.67;100513.84;5025920;28;20029;-75
2022/05/27 01:42:34;;;;;;;6.22;0.90;;;;;;;18.37;51.80;100516.50;5034362;28;20085;-76
2022/05/27 01:45:17;;;;;;;3.53;1.10;;;;;;;18.36;51.64;100512.94;5024934;28;20034;-76
2022/05/27 01:47:55;;;;;;;4.05;0.98;;;;;;;18.34;51.46;100506.81;5022317;28;20085;-75
2022/05/27 01:50:26;;;;;;;4.20;0.70;;;;;;;18.29;52.13;100506.13;5020720;28;20048;-75
2022/05/27 01:53:01;;;;;;;3.70;1.20;;;;;;;18.30;51.85;100507.84;5022354;28;20048;-76
2022/05/27 01:55:33;;;;;;;4.93;1.00;;;;;;;18.28;51.95;100492.81;5023587;28;20554;-75
2022/05/27 01:58:05;;;;;;;2.40;0.70;;;;;;;18.34;51.81;100498.81;5024965;28;20118;-75
2022/05/27 02:00:31;;;;;;;2.50;1.05;;;;;;;18.35;51.93;100488.97;5019844;28;20046;-76
2022/05/27 02:03:08;;;;;;;3.22;1.08;;;;;;;18.36;52.05;100496.91;5023339;28;20038;-76
2022/05/27 02:05:38;;;;;;;2.58;0.85;;;;;;;18.40;52.05;100497.69;5022062;28;20029;-75
2022/05/27 02:08:16;;;;;;;3.75;0.98;;;;;;;18.34;51.89;100493.47;5026372;28;20137;-75
2022/05/27 02:10:59;;;;;;;3.20;0.80;;;;;;;18.35;52.11;100500.53;5019693;28;20085;-76
2022/05/27 02:13:38;;;;;;;3.03;0.95;;;;;;;18.39;51.83;100502.16;5020250;28;20048;-76
2022/05/27 02:16:06;;;;;;;6.40;1.13;;;;;;;18.38;51.95;100496.88;5019569;28;20045;-75
2022/05/27 02:18:46;;;;;;;4.10;1.35;;;;;;;18.37;52.04;100492.47;5023339;28;20084;-76
2022/05/27 02:21:18;;;;;;;3.63;0.90;;;;;;;18.40;51.90;100492.34;5021600;28;20041;-75
2022/05/27 02:23:50;;;;;;;5.05;1.27;;;;;;;18.40;51.73;100495.00;5023286;28;20041;-76
2022/05/27 02:26:20;;;;;;;3.53;1.00;;;;;;;18.44;51.87;100488.59;5021335;28;20049;-76
2022/05/27 02:28:50;;;;;;;4.13;1.00;;;;;;;18.47;51.96;100487.59;5020559;28;20041;-76
2022/05/27 02:31:23;;;;;;;2.55;0.80;;;;;;;18.45;51.81;100490.38;5019809;28;20110;-76
2022/05/27 02:36:44;;;;;;;3.00;1.02;;;;;;;18.46;51.90;100492.09;5021536;28;20049;-76
2022/05/27 02:39:10;;;;;;;3.95;1.27;;;;;;;18.54;52.12;100491.78;5019771;28;20392;-76
2022/05/27 02:41:46;;;;;;;4.13;1.00;;;;;;;18.52;51.87;100496.31;5019377;28;20037;-75
2022/05/27 02:44:23;;;;;;;5.10;1.08;;;;;;;18.37;52.17;100498.69;5021057;28;20037;-75
2022/05/27 02:47:03;;;;;;;4.68;1.30;;;;;;;18.42;52.19;100508.28;5020107;28;20041;-76
2022/05/27 02:50:09;;;;;;;3.60;0.98;;;;;;;18.43;52.16;100518.06;5020466;28;20651;-76
2022/05/27 02:52:52;;;;;;;3.50;0.80;;;;;;;18.36;52.70;100512.94;5016481;28;20051;-76
2022/05/27 02:55:37;;;;;;;3.70;1.00;;;;;;;18.35;52.97;100529.91;5018526;28;20455;-76
2022/05/27 02:58:02;;;;;;;4.30;1.33;;;;;;;18.33;53.37;100531.78;5019539;28;20135;-76
2022/05/27 03:00:33;;;;;;;3.75;1.23;;;;;;;18.31;53.41;100530.09;5021289;28;20504;-76
2022/05/27 03:02:59;;;;;;;4.38;1.50;;;;;;;18.28;54.18;100530.22;5020981;28;20069;-76
2022/05/27 03:05:37;;;;;;;5.85;1.80;;;;;;;18.13;55.86;100539.66;5020413;28;20123;-75
2022/05/27 03:08:18;;;;;;;5.30;2.17;;;;;;;17.89;58.09;100538.75;5018017;28;20041;-76
2022/05/27 03:11:02;;;;;;;5.57;2.05;;;;;;;17.55;60.52;100541.72;5018295;28;20128;-76
2022/05/27 03:13:46;;;;;;;6.07;2.50;;;;;;;17.17;63.17;100546.59;5020070;28;20038;-76
2022/05/27 03:16:26;;;;;;;7.18;2.65;;;;;;;16.84;64.90;100552.06;5021492;28;20038;-76
2022/05/27 03:19:08;;;;;;;8.75;2.70;;;;;;;16.76;66.94;100554.06;5021104;28;20041;-76
2022/05/27 03:21:45;;;;;;;5.85;2.70;;;;;;;16.60;68.74;100543.88;5021640;28;20025;-76
2022/05/27 03:24:29;;;;;;;5.97;2.00;;;;;;;16.44;70.37;100554.16;5023354;28;20034;-76
2022/05/27 03:27:27;;;;;;;6.55;1.80;;;;;;;16.06;73.42;100549.06;5022825;28;20103;-76
2022/05/27 03:30:08;;;;;;;5.88;2.30;;;;;;;15.66;77.69;100558.97;5021622;28;20056;-76
2022/05/27 03:32:46;;;;;;;5.13;2.40;;;;;;;15.42;80.10;100570.28;5023711;28;20431;-76
2022/05/27 03:35:22;;;;;;;5.72;2.50;;;;;;;15.22;82.39;100553.06;5027543;28;20476;-75
2022/05/27 03:38:05;;;;;;;7.60;2.83;;;;;;;15.11;84.07;100571.03;5025508;28;20057;-76
2022/05/27 03:40:47;;;;;;;4.15;2.47;;;;;;;14.97;87.93;100573.16;5026540;28;20116;-77
2022/05/27 03:43:13;;;;;;;4.30;2.28;;;;;;;14.78;90.06;100568.28;5025720;28;20087;-77
2022/05/27 03:45:50;;;;;;;5.65;2.63;;;;;;;14.69;91.16;100576.44;5023029;28;20030;-78
2022/05/27 03:48:17;;;;;;;6.97;2.70;;;;;;;14.55;94.04;100557.28;5029737;28;20029;-77
2022/05/27 03:50:45;;;;;;;7.40;3.03;;;;;;;14.54;93.92;100553.75;5026839;28;20116;-77
2022/05/27 03:53:10;;;;;;;8.32;2.78;;;;;;;14.54;94.29;100543.13;5025248;28;20072;-77
2022/05/27 03:55:38;;;;;;;5.03;2.80;;;;;;;14.52;94.95;100538.72;5025632;28;20072;-77
2022/05/27 03:58:04;;;;;;;4.93;3.10;;;;;;;14.52;95.96;100536.94;5020367;28;20041;-77
2022/05/27 04:00:29;;;;;;;5.80;3.00;;;;;;;14.58;94.51;100536.84;5025532;28;20041;-77
2022/05/27 04:02:54;;;;;;;7.13;2.70;;;;;;;14.56;94.90;100538.63;5021445;28;20176;-77
2022/05/27 04:05:20;;;;;;;5.30;3.05;;;;;;;14.60;94.99;100544.78;5028732;28;20069;-77
2022/05/27 04:07:46;;;;;;;10.52;3.35;;;;;;;14.56;94.88;100540.44;5024630;28;20128;-77
2022/05/27 04:10:12;;;;;;;5.50;2.90;;;;;;;14.64;93.77;100538.47;5025630;28;20389;-78
2022/05/27 04:12:37;;;;;;;5.60;2.58;;;;;;;14.66;93.10;100532.22;5029956;28;20033;-77
2022/05/27 04:15:04;;;;;;;5.60;2.38;;;;;;;14.73;92.77;100535.63;5026654;28;20040;-77
2022/05/27 04:17:33;;;;;;;5.95;2.33;;;;;;;14.78;92.78;100533.72;5021691;28;20084;-78
2022/05/27 04:20:06;;;;;;;6.93;2.72;;;;;;;14.88;92.44;100539.69;5022366;28;20068;-77
2022/05/27 04:22:31;;;;;;;3.83;1.75;;;;;;;14.97;90.66;100546.59;5025792;28;20392;-77
2022/05/27 04:24:58;;;;;;;4.47;1.90;;;;;;;14.93;90.96;100544.88;5021958;28;20045;-77
2022/05/27 04:27:25;;;;;;;5.85;2.25;;;;;;;14.75;92.59;100541.78;5035289;28;20040;-78
2022/05/27 04:29:51;;;;;;;4.05;1.70;;;;;;;14.66;92.63;100544.63;5024173;28;20040;-79
2022/05/27 04:32:18;;;;;;;3.67;1.20;;;;;;;14.57;93.60;100526.25;5026830;28;20079;-78
2022/05/27 04:34:44;;;;;;;3.72;1.38;;;;;;;14.46;94.34;100535.31;5020848;28;20040;-78
2022/05/27 04:37:10;;;;;;;4.30;1.33;;;;;;;14.37;95.22;100540.81;5028091;28;20034;-79
2022/05/27 04:39:37;;;;;;;3.80;1.40;;;;;;;14.35;96.09;100531.13;5022802;28;20077;-78
2022/05/27 04:42:03;;;;;;;5.30;1.92;;;;;;;14.36;96.97;100527.56;5023227;28;20481;-79
2022/05/27 04:44:28;;;;;;;4.25;1.60;;;;;;;14.33;97.49;100533.81;5026103;28;20440;-79
2022/05/27 04:46:53;;;;;;;5.50;2.30;;;;;;;14.27;98.12;100523.31;5026578;28;20084;-79
2022/05/27 04:52:03;;;;;;;4.57;1.98;;;;;;;14.29;98.95;100520.66;5028133;28;20180;-79
2022/05/27 04:54:29;;;;;;;5.47;2.22;;;;;;;14.30;99.02;100520.59;5024343;28;20101;-78
2022/05/27 04:56:55;;;;;;;4.18;1.90;;;;;;;14.32;98.48;100517.91;5027843;28;20025;-79
2022/05/27 04:59:21;;;;;;;4.70;1.98;;;;;;;14.27;98.03;100531.28;5031906;28;20048;-79
2022/05/27 05:01:46;;;;;;;4.32;2.03;;;;;;;14.22;98.50;100523.41;5026610;28;20543;-78
2022/05/27 05:04:11;;;;;;;5.03;2.17;;;;;;;14.24;99.31;100518.09;5027434;28;20026;-78
2022/05/27 05:06:37;;;;;;;5.03;2.35;;;;;;;14.28;99.11;100517.13;5026544;28;20033;-78
2022/05/27 05:09:02;;;;;;;3.78;2.20;;;;;;;14.36;98.84;100525.78;5026908;28;20041;-78
2022/05/27 05:11:28;;;;;;;4.35;1.80;;;;;;;14.35;98.93;100524.03;5025456;28;20722;-79
2022/05/27 05:13:53;;;;;;;5.60;2.58;;;;;;;14.29;99.28;100518.00;5023289;28;20037;-79
2022/05/27 05:16:19;;;;;;;5.72;2.65;;;;;;;14.30;99.95;100517.94;5027875;28;20033;-78
2022/05/27 05:18:44;;;;;;;6.60;2.78;;;;;;;14.30;99.96;100523.25;5023737;28;20088;-78
2022/05/27 05:21:09;;;;;;;7.15;3.70;;;;;;;14.34;100.00;100521.41;5028319;28;20025;-79
2022/05/27 05:23:35;;;;;;;3.83;2.80;;;;;;;14.36;100.00;100517.81;5028104;28;20128;-78
2022/05/27 05:26:00;;;;;;;6.88;2.92;;;;;;;14.38;100.00;100521.34;5025163;28;20608;-79
2022/05/27 05:28:25;;;;;;;6.28;2.78;;;;;;;14.40;100.00;100524.78;5024092;28;20479;-79
2022/05/27 05:30:51;;;;;;;7.57;2.80;;;;;;;14.41;100.00;100504.47;5025782;28;20438;-79
2022/05/27 05:33:16;;;;;;;6.95;3.03;;;;;;;14.45;100.00;100517.59;5027308;28;20037;-78
2022/05/27 05:35:42;;;;;;;4.68;3.15;;;;;;;14.50;100.00;100508.69;5025378;28;20033;-78
2022/05/27 05:38:07;;;;;;;9.70;3.33;;;;;;;14.54;100.00;100505.97;5025509;28;20045;-78
2022/05/27 05:40:33;;;;;;;6.07;3.83;;;;;;;14.56;100.00;100520.03;5026228;28;20087;-78
2022/05/27 05:43:01;;;;;;;5.90;3.53;;;;;;;14.57;100.00;100515.63;5031892;28;20136;-78
2022/05/27 05:45:27;;;;;;;7.32;3.17;;;;;;;14.64;100.00;100522.53;5022262;28;20500;-79
2022/05/27 05:47:52;;;;;;;7.35;3.42;;;;;;;14.61;100.00;100519.94;5030170;28;20098;-78
2022/05/27 05:50:17;;;;;;;7.78;3.38;;;;;;;14.62;100.00;100513.75;5023759;28;20044;-79
2022/05/27 05:52:44;;;;;;;6.95;3.55;;;;;;;14.62;100.00;100513.75;5024206;28;20041;-79
2022/05/27 05:55:11;;;;;;;9.98;4.53;;;;;;;14.70;100.00;100514.44;5023397;28;20122;-79
2022/05/27 05:57:39;;;;;;;8.45;4.03;;;;;;;14.73;100.00;100510.84;5030130;28;20126;-78
2022/05/27 06:00:06;;;;;;;9.10;4.20;;;;;;;14.73;100.00;100513.50;5026486;28;20037;-79
2022/05/27 06:02:37;;;;;;;9.35;4.15;;;;;;;14.77;100.00;100515.16;5028590;28;20048;-79
2022/05/27 06:05:03;;;;;;;8.00;3.22;;;;;;;14.83;100.00;100513.25;5033120;28;20029;-79
2022/05/27 06:07:33;;;;;;;8.88;3.50;;;;;;;14.80;100.00;100512.41;5028293;28;20393;-79
2022/05/27 06:09:59;;;;;;;5.88;3.85;;;;;;;14.75;100.00;100512.56;5030481;28;20040;-79
2022/05/27 06:12:25;;;;;;;8.82;4.30;;;;;;;14.77;100.00;100521.34;5033335;28;20400;-79
2022/05/27 06:14:51;;;;;;;5.85;3.83;;;;;;;14.82;100.00;100514.13;5027562;28;20067;-79
2022/05/27 06:17:17;;;;;;;8.63;4.60;;;;;;;14.89;100.00;100506.91;5026900;28;20033;-79
2022/05/27 06:19:42;;;;;;;12.07;4.45;;;;;;;14.94;100.00;100506.78;5033442;28;20037;-79
2022/05/27 06:22:07;;;;;;;6.10;3.97;;;;;;;15.07;100.00;100508.22;5036305;28;20029;-79
2022/05/27 06:24:33;;;;;;;6.40;4.13;;;;;;;15.22;100.00;100486.59;5027938;28;20041;-79
2022/05/27 06:26:59;;;;;;;7.15;3.92;;;;;;;15.28;99.22;100489.06;5031488;28;20087;-79
2022/05/27 06:34:53;;;;;;;3.40;1.38;;;;;;;12.90;92.81;100594.69;5028380;28;20432;-76
2022/05/27 06:37:21;;;;;;;4.88;1.23;;;;;;;12.48;95.44;100612.06;5027273;28;20041;-77
2022/05/27 06:39:47;;;;;;;4.53;1.60;;;;;;;12.26;97.90;100614.97;5023799;28;20038;-77
2022/05/27 06:42:14;;;;;;;4.50;1.30;;;;;;;12.30;99.15;100641.41;5021263;28;20044;-75
2022/05/27 06:44:40;;;;;;;4.32;1.60;;;;;;;12.24;98.18;100613.25;5025404;28;20057;-77
2022/05/27 06:47:09;;;;;;;4.00;1.50;;;;;;;12.28;98.06;100602.56;5024095;28;20373;-76
2022/05/27 06:49:36;;;;;;;3.72;1.20;;;;;;;12.28;97.51;100625.53;5023349;28;20046;-77
2022/05/27 06:52:03;;;;;;;4.18;1.60;;;;;;;12.24;97.23;100627.34;5021746;28;20083;-77
2022/05/27 06:54:28;;;;;;;2.92;1.10;;;;;;;12.20;97.54;100627.38;5023304;28;20045;-76
2022/05/27 06:56:54;;;;;;;6.25;1.83;;;;;;;12.23;98.33;100625.56;5023400;28;20033;-76
2022/05/27 06:59:22;;;;;;;4.97;1.58;;;;;;;12.36;98.33;100620.13;5019768;28;20045;-76
2022/05/27 07:01:48;;;;;;;4.97;1.60;;;;;;;12.40;96.63;100635.97;5024594;28;20086;-75
2022/05/27 07:04:13;;;;;;;4.00;1.60;;;;;;;12.44;96.98;100612.97;5016882;28;20507;-77
2022/05/27 07:06:43;;;;;;;6.28;2.10;;;;;;;12.46;97.02;100613.84;5019981;28;20037;-76
2022/05/27 07:09:10;;;;;;;4.65;1.50;;;;;;;12.55;97.04;100600.50;5027213;28;20026;-76
2022/05/27 07:11:37;;;;;;;3.33;1.67;;;;;;;12.56;96.96;100590.78;5024820;28;20044;-77
2022/05/27 07:14:03;;;;;;;4.35;1.45;;;;;;;12.53;95.69;100607.59;5026015;28;20535;-76
2022/05/27 07:16:28;;;;;;;3.78;1.45;;;;;;;12.53;95.55;100602.28;5024747;28;20037;-76
2022/05/27 07:18:54;;;;;;;4.50;1.60;;;;;;;12.54;95.00;100596.09;5023637;28;20373;-76
2022/05/27 07:21:20;;;;;;;4.75;1.50;;;;;;;12.62;95.45;100609.22;5024854;28;20037;-76
2022/05/27 07:23:46;;;;;;;4.53;1.30;;;;;;;12.73;94.93;100609.94;5023059;28;20034;-76
2022/05/27 07:26:12;;;;;;;5.97;1.92;;;;;;;12.71;94.11;100607.34;5026386;28;20076;-75
2022/05/27 07:28:38;;;;;;;3.85;1.42;;;;;;;12.70;94.65;100604.69;5023880;28;20443;-76
2022/05/27 07:31:03;;;;;;;3.88;1.70;;;;;;;12.78;95.14;100612.53;5028798;28;20041;-76
2022/05/27 07:33:29;;;;;;;4.25;1.60;;;;;;;12.80;94.77;100616.03;5022888;28;20040;-76
2022/05/27 07:35:55;;;;;;;3.65;1.40;;;;;;;12.74;94.30;100609.06;5026881;28;20045;-77
2022/05/27 07:38:20;;;;;;;6.32;1.17;;;;;;;12.76;94.75;100609.03;5024963;28;20034;-77
2022/05/27 07:40:45;;;;;;;4.75;1.83;;;;;;;12.77;94.31;100611.66;5029747;28;20419;-77
2022/05/27 07:43:12;;;;;;;2.53;1.42;;;;;;;12.89;93.75;100618.56;5027760;28;20064;-76
2022/05/27 07:45:40;;;;;;;4.35;2.20;;;;;;;12.95;94.13;100621.13;5042804;28;20397;-77
2022/05/27 07:48:06;;;;;;;6.35;1.58;;;;;;;12.99;94.08;100606.94;5024671;28;20128;-76
2022/05/27 07:50:32;;;;;;;3.42;1.70;;;;;;;13.10;94.51;100612.09;5022228;28;20037;-77
2022/05/27 07:52:58;;;;;;;4.05;1.80;;;;;;;13.07;93.05;100609.47;5025746;28;20052;-76
2022/05/27 07:55:23;;;;;;;4.20;1.63;;;;;;;13.23;93.16;100612.75;5023043;28;20040;-76
2022/05/27 07:57:49;;;;;;;4.90;2.20;;;;;;;13.42;91.98;100610.75;5025291;28;20064;-77
2022/05/27 08:00:21;;;;;;;4.97;1.77;;;;;;;13.61;90.61;100606.00;5033862;28;20099;-76
2022/05/27 08:02:47;;;;;;;3.13;1.67;;;;;;;13.74;90.52;100602.22;5025759;28;20034;-76
2022/05/27 08:05:17;;;;;;;3.45;1.52;;;;;;;13.88;89.29;100607.25;5025683;28;20037;-76
2022/05/27 08:07:43;;;;;;;4.25;1.67;;;;;;;14.04;87.87;100614.03;5023522;28;20132;-76
2022/05/27 08:10:10;;;;;;;3.40;1.40;;;;;;;14.09;87.62;100603.31;5024058;28;20117;-77
2022/05/27 08:12:35;;;;;;;4.40;1.60;;;;;;;14.29;86.55;100597.63;5024485;28;20128;-76
2022/05/27 08:15:01;;;;;;;2.90;1.35;;;;;;;14.57;84.71;100601.50;5022505;28;20125;-76
2022/05/27 08:17:26;;;;;;;4.13;1.80;;;;;;;14.81;83.57;100596.56;5025576;28;20068;-76
2022/05/27 08:19:52;;;;;;;4.65;1.55;;;;;;;15.00;83.51;100581.06;5021061;28;20644;-77
2022/05/27 08:22:18;;;;;;;4.10;1.45;;;;;;;15.18;82.73;100588.59;5028970;28;20456;-76
2022/05/27 08:24:44;;;;;;;4.43;1.58;;;;;;;15.13;82.89;100585.16;5027253;28;20049;-76
2022/05/27 08:27:10;;;;;;;4.18;1.80;;;;;;;15.17;81.37;100589.50;5030645;28;20113;-77
2022/05/27 08:29:35;;;;;;;3.78;2.00;;;;;;;15.18;82.43;100580.59;5026200;28;20385;-76
2022/05/27 08:32:04;;;;;;;3.95;1.30;;;;;;;15.31;81.96;100583.84;5025660;28;20075;-76
2022/05/27 08:40:14;;;;;;;3.67;1.40;;;;;;;15.59;80.78;100578.69;5021507;28;20484;-76
2022/05/27 08:42:57;;;;;;;4.55;1.40;;;;;;;15.73;79.16;100581.03;5023975;28;20033;-76
2022/05/27 08:45:22;;;;;;;;;;;;;;;15.81;80.44;100578.16;5025291;28;20033;-76
2022/05/27 08:47:57;;;;;;;3.92;1.50;;;;;;;16.15;78.20;100578.97;5022832;28;19920;-76
2022/05/27 08:50:26;;;;;;;3.53;1.33;;;;;;;16.08;76.78;100566.75;5021722;28;20033;-77
2022/05/27 08:53:02;;;;;;;8.88;1.90;;;;;;;15.93;78.96;100591.16;5026101;28;20042;-76
2022/05/27 09:01:18;;;;;;;3.45;1.58;;;;;;;15.44;79.04;100605.69;5023252;28;20034;-77
2022/05/27 09:03:47;;;;;;;4.50;1.90;;;;;;;15.60;80.08;100599.06;5023709;28;20048;-77
2022/05/27 09:06:17;;;;;;;6.18;2.08;;;;;;;15.64;77.96;100592.75;5031605;28;20068;-77
2022/05/27 09:08:42;;;;;;;4.25;1.90;;;;;;;15.74;78.27;100583.63;5023752;28;20037;-77
2022/05/27 09:11:48;;;;;;;3.97;1.90;;;;;;;15.76;76.65;100587.13;5022587;28;20059;-77
2022/05/27 09:14:24;;;;;;;5.30;1.50;;;;;;;15.90;79.39;100580.56;5015431;28;20149;-76
2022/05/27 09:16:58;;;;;;;5.40;2.03;;;;;;;15.99;76.66;100580.31;5024798;28;20051;-77
2022/05/27 09:19:50;;;;;;;3.45;1.83;;;;;;;16.21;77.24;100576.13;5019228;28;20211;-77
2022/05/27 09:22:34;;;;;;;4.00;1.90;;;;;;;16.41;73.56;100588.00;5029291;28;20033;-77
2022/05/27 09:25:20;;;;;;;4.90;1.92;;;;;;;16.21;75.95;100599.22;5023269;28;20489;-77
2022/05/27 09:28:01;;;;;;;4.22;1.70;;;;;;;16.35;73.95;100601.50;5023133;28;20492;-77
2022/05/27 09:30:27;;;;;;;3.67;1.90;;;;;;;16.35;73.27;100601.50;5021780;28;20038;-77
2022/05/27 09:32:57;;;;;;;3.30;1.80;;;;;;;16.58;73.54;100592.81;5022897;28;20745;-77
2022/05/27 09:35:28;;;;;;;6.03;1.92;;;;;;;16.71;70.80;100596.00;5022379;28;20038;-77
2022/05/27 09:37:58;;;;;;;5.57;1.97;;;;;;;16.99;71.17;100588.03;5029680;28;20033;-77
2022/05/27 09:40:49;;;;;;;4.82;1.65;;;;;;;17.19;70.19;100576.75;5023082;28;20044;-77
2022/05/27 09:43:37;;;;;;;4.47;1.55;;;;;;;17.27;64.42;100572.03;5025328;28;20048;-76
2022/05/27 09:46:06;;;;;;;3.22;1.35;;;;;;;17.35;64.06;100569.13;5023367;28;20058;-77
2022/05/27 09:48:32;;;;;;;4.22;1.42;;;;;;;17.25;65.27;100573.88;5026307;28;20038;-77
2022/05/27 09:51:01;;;;;;;3.28;1.48;;;;;;;17.38;64.17;100569.88;5024016;28;20041;-77
2022/05/27 09:53:31;;;;;;;4.35;1.50;;;;;;;17.28;63.05;100571.09;5027478;28;20112;-77
2022/05/27 09:56:02;;;;;;;4.72;1.60;;;;;;;17.41;63.65;100579.56;5023133;28;20035;-77
2022/05/27 09:58:32;;;;;;;7.32;1.80;;;;;;;17.73;62.23;100554.44;5024191;28;20500;-77
2022/05/27 10:00:57;;;;;;;5.80;1.52;;;;;;;18.08;60.93;100549.66;5021401;28;20052;-78
2022/05/27 10:03:37;;;;;;;6.53;1.50;;;;;;;18.20;59.87;100570.56;5025118;28;20041;-77
2022/05/27 10:06:07;;;;;;;6.78;1.50;;;;;;;18.03;60.43;100562.31;5021629;28;20052;-77
2022/05/27 10:08:41;;;;;;;4.50;1.67;;;;;;;17.57;60.58;100569.25;5033086;28;20041;-78
2022/05/27 10:11:07;;;;;;;5.15;1.60;;;;;;;17.39;60.25;100566.25;5044479;28;20041;-78
2022/05/27 10:13:34;;;;;;;3.35;1.50;;;;;;;17.56;60.82;100563.03;5030007;28;20048;-78
2022/05/27 10:16:14;;;;;;;4.28;1.70;;;;;;;17.82;59.78;100567.50;5025639;28;20038;-77
2022/05/27 10:18:42;;;;;;;4.03;1.70;;;;;;;17.88;59.53;100561.94;5023091;28;20041;-77
2022/05/27 10:21:17;;;;;;;4.05;1.30;;;;;;;17.82;59.86;100546.16;5027644;28;20038;-78
2022/05/27 10:23:46;;;;;;;5.13;2.33;;;;;;;17.86;58.55;100536.22;5022203;28;20125;-77
2022/05/27 10:26:20;;;;;;;6.53;1.70;;;;;;;18.05;59.20;100549.75;5033816;28;20055;-77
2022/05/27 10:28:55;;;;;;;4.30;1.95;;;;;;;18.17;59.19;100549.31;5025143;28;20042;-78
2022/05/27 10:31:20;;;;;;;5.43;2.13;;;;;;;18.23;59.03;100554.41;5025379;28;20042;-78
2022/05/27 10:33:47;;;;;;;4.40;1.55;;;;;;;18.33;58.99;100554.94;5027822;28;20018;-78
2022/05/27 10:36:48;;;;;;;5.90;2.30;;;;;;;18.32;57.92;100535.38;5024540;28;20037;-79
2022/05/27 10:40:00;;;;;;;6.80;2.38;;;;;;;18.36;59.03;100520.97;5025968;28;20118;-78
2022/05/27 10:42:44;;;;;;;5.78;1.90;;;;;;;18.48;57.98;100521.44;5018549;28;20084;-78
2022/05/27 10:45:25;;;;;;;6.63;1.73;;;;;;;18.80;58.33;100507.69;5042111;28;20412;-78
2022/05/27 10:48:05;;;;;;;4.07;1.42;;;;;;;18.86;55.61;100524.41;5032060;28;20045;-79
2022/05/27 10:50:39;;;;;;;4.72;1.23;;;;;;;19.05;54.26;100525.41;5030035;28;20073;-78
2022/05/27 10:53:26;;;;;;;4.70;1.50;;;;;;;19.35;51.27;100514.34;5026265;28;20038;-78
2022/05/27 10:56:07;;;;;;;5.50;1.25;;;;;;;19.15;49.96;100529.44;5028853;28;20538;-78
2022/05/27 11:02:17;;;;;;;6.77;1.17;;;;;;;19.19;50.27;100517.66;5028059;28;20206;-78
2022/05/27 11:04:58;;;;;;;5.05;1.40;;;;;;;19.14;49.72;100495.59;5029691;28;20332;-78
2022/05/27 11:07:32;;;;;;;5.90;1.60;;;;;;;19.13;47.81;100491.19;5029089;28;20040;-78
2022/05/27 11:10:46;;;;;;;7.45;1.60;;;;;;;19.43;48.85;100496.16;5031707;28;20634;-78
2022/05/27 11:16:45;;;;;;;5.50;1.48;;;;;;;19.12;44.24;100516.19;5027530;28;20095;-79
2022/05/27 11:19:40;;;;;;;6.28;1.58;;;;;;;19.33;44.22;100501.03;5025020;28;20041;-77
2022/05/27 11:22:13;;;;;;;5.80;1.40;;;;;;;19.63;43.33;100482.78;5025066;28;20053;-78
2022/05/27 11:24:57;;;;;;;5.28;1.60;;;;;;;20.06;42.62;100545.13;5024213;28;20042;-78
2022/05/27 11:27:47;;;;;;;3.10;1.23;;;;;;;19.89;40.58;100497.69;5022963;28;20044;-78
2022/05/27 11:30:19;;;;;;;4.55;1.05;;;;;;;19.44;42.69;100492.53;5025756;28;20041;-78
2022/05/27 11:33:02;;;;;;;5.85;1.98;;;;;;;19.48;41.78;100467.38;5024013;28;20113;-78
2022/05/27 11:35:27;;;;;;;5.53;1.10;;;;;;;20.09;43.25;100461.94;5020923;28;20121;-77
2022/05/27 11:37:57;;;;;;;5.95;1.55;;;;;;;20.50;40.98;100456.44;5024809;28;20471;-78
2022/05/27 11:40:32;;;;;;;4.47;1.30;;;;;;;20.23;42.77;100445.25;5035879;28;20053;-77
2022/05/27 11:43:38;;;;;;;6.30;1.73;;;;;;;20.30;42.14;100451.16;5021259;28;20029;-78
2022/05/27 11:46:25;;;;;;;6.40;1.30;;;;;;;20.03;41.63;100462.25;5022389;28;20038;-79
2022/05/27 11:49:12;;;;;;;4.28;1.33;;;;;;;20.17;42.59;100463.41;5021779;28;20398;-78
2022/05/27 11:51:49;;;;;;;6.68;1.30;;;;;;;19.83;42.71;100462.28;5022607;28;20493;-78
2022/05/27 11:54:49;;;;;;;5.50;1.58;;;;;;;19.39;42.42;100452.59;5023834;28;20033;-77
2022/05/27 11:57:20;;;;;;;5.28;1.35;;;;;;;19.03;42.91;100477.31;5028374;28;20052;-78
2022/05/27 11:59:54;;;;;;;6.50;1.40;;;;;;;18.80;43.44;100480.94;5030962;28;20049;-78
2022/05/27 12:02:37;;;;;;;5.05;1.02;;;;;;;18.79;43.74;100460.50;5031755;28;20037;-78
2022/05/27 12:05:19;;;;;;;5.07;1.13;;;;;;;18.70;44.91;100455.47;5028206;28;20116;-78
2022/05/27 12:07:51;;;;;;;3.17;0.95;;;;;;;18.77;44.43;100454.34;5028259;28;20427;-78
2022/05/27 12:10:38;;;;;;;6.30;1.42;;;;;;;18.82;43.80;100454.16;5026795;28;20381;-78
2022/05/27 12:13:22;;;;;;;4.25;1.10;;;;;;;18.91;44.23;100445.72;5026238;28;20037;-77
2022/05/27 12:15:59;;;;;;;3.20;1.00;;;;;;;19.04;44.71;100440.75;5025517;28;20038;-76